createdAt,value
2019-05-21T00:00:25.859Z,85.11
2019-05-21T00:02:52.942Z,85.22
2019-05-21T00:05:20.083Z,85.20
2019-05-21T00:07:47.130Z,85.18
2019-05-21T00:10:15.808Z,85.26
2019-05-21T00:12:42.901Z,85.17
2019-05-21T00:15:09.943Z,85.25
2019-05-21T00:17:37.048Z,85.25
2019-05-21T00:20:04.516Z,85.35
2019-05-21T00:22:31.638Z,85.52
2019-05-21T00:24:58.705Z,85.46
2019-05-21T00:27:25.792Z,85.56
2019-05-21T00:30:29.292Z,85.58
2019-05-21T00:33:33.964Z,85.52
2019-05-21T00:36:42.406Z,85.28
2019-05-21T00:39:48.414Z,85.29
2019-05-21T00:42:57.937Z,85.03
2019-05-21T00:45:25.014Z,84.88
2019-05-21T00:47:52.100Z,84.88
2019-05-21T00:50:19.182Z,84.53
2019-05-21T00:52:46.286Z,84.33
2019-05-21T00:55:32.828Z,84.21
2019-05-21T00:57:59.899Z,84.13
2019-05-21T01:00:26.988Z,84.28
2019-05-21T01:02:54.109Z,84.29
2019-05-21T01:05:21.158Z,84.43
2019-05-21T01:07:48.225Z,84.66
2019-05-21T01:10:34.785Z,84.81
2019-05-21T01:13:01.904Z,85.02
2019-05-21T01:15:28.992Z,85.15
2019-05-21T01:17:56.019Z,84.94
2019-05-21T01:20:23.108Z,85.21
2019-05-21T01:22:50.214Z,85.46
2019-05-21T01:25:17.268Z,85.55
2019-05-21T01:27:44.317Z,85.61
2019-05-21T01:30:11.701Z,85.67
2019-05-21T01:32:38.792Z,85.76
2019-05-21T01:35:18.273Z,85.55
2019-05-21T01:37:45.332Z,85.47
2019-05-21T01:40:14.530Z,85.56
2019-05-21T01:42:41.602Z,85.67
2019-05-21T01:45:08.666Z,85.59
2019-05-21T01:47:35.762Z,85.46
2019-05-21T01:50:02.987Z,85.55
2019-05-21T01:52:30.081Z,85.51
2019-05-21T01:54:57.167Z,85.46
2019-05-21T01:57:24.283Z,85.66
2019-05-21T01:59:51.357Z,85.62
2019-05-21T02:02:18.412Z,85.81
2019-05-21T02:04:45.498Z,85.99
2019-05-21T02:07:12.638Z,86.24
2019-05-21T02:09:59.291Z,86.41
2019-05-21T02:15:46.914Z,86.46
2019-05-21T02:18:14.022Z,86.49
2019-05-21T02:20:41.134Z,86.52
2019-05-21T02:23:08.229Z,86.48
2019-05-21T02:25:35.278Z,86.48
2019-05-21T02:28:02.349Z,86.38
2019-05-21T02:30:29.438Z,86.45
2019-05-21T02:32:56.494Z,86.48
2019-05-21T02:35:23.633Z,86.35
2019-05-21T02:37:50.727Z,86.30
2019-05-21T02:40:17.947Z,86.26
2019-05-21T02:42:45.064Z,86.21
2019-05-21T02:45:12.204Z,86.19
2019-05-21T02:47:39.295Z,86.25
2019-05-21T02:50:06.572Z,86.14
2019-05-21T02:52:33.670Z,86.12
2019-05-21T02:55:00.745Z,85.97
2019-05-21T02:57:38.291Z,86.12
2019-05-21T03:00:07.594Z,86.05
2019-05-21T03:02:37.397Z,86.20
2019-05-21T03:05:04.967Z,86.22
2019-05-21T03:07:32.134Z,86.32
2019-05-21T03:09:59.203Z,86.35
2019-05-21T03:12:26.275Z,86.27
2019-05-21T03:14:53.336Z,86.26
2019-05-21T03:17:20.414Z,86.25
2019-05-21T03:19:47.473Z,86.37
2019-05-21T03:22:14.572Z,86.34
2019-05-21T03:24:41.691Z,86.24
2019-05-21T03:27:08.788Z,86.28
2019-05-21T03:29:35.868Z,86.29
2019-05-21T03:32:02.960Z,86.32
2019-05-21T03:34:30.153Z,86.34
2019-05-21T03:36:57.247Z,86.37
2019-05-21T03:39:24.286Z,86.31
2019-05-21T03:41:51.392Z,86.22
2019-05-21T03:44:18.443Z,86.27
2019-05-21T03:46:45.531Z,86.31
2019-05-21T03:49:12.653Z,86.13
2019-05-21T03:51:39.731Z,86.02
2019-05-21T03:54:06.795Z,86.12
2019-05-21T03:56:33.870Z,86.12
2019-05-21T03:59:00.927Z,86.05
2019-05-21T04:01:28.000Z,86.10
2019-05-21T04:03:55.095Z,86.08
2019-05-21T04:06:22.213Z,86.13
2019-05-21T04:08:49.319Z,86.00
2019-05-21T04:11:16.525Z,85.77
2019-05-21T04:13:43.666Z,85.70
2019-05-21T04:16:23.310Z,85.67
2019-05-21T04:18:54.567Z,85.73
2019-05-21T04:21:21.618Z,85.78
2019-05-21T04:23:48.710Z,85.53
2019-05-21T04:26:15.811Z,85.57
2019-05-21T04:28:42.885Z,85.63
2019-05-21T04:31:10.007Z,85.66
2019-05-21T04:33:37.155Z,85.49
2019-05-21T04:36:04.257Z,85.26
2019-05-21T04:38:31.414Z,85.37
2019-05-21T04:40:58.474Z,85.19
2019-05-21T04:43:25.609Z,84.74
2019-05-21T04:45:52.713Z,84.60
2019-05-21T04:48:19.790Z,84.70
2019-05-21T04:50:46.925Z,84.52
2019-05-21T04:53:14.008Z,84.49
2019-05-21T04:55:41.109Z,84.49
2019-05-21T04:58:08.195Z,84.85
2019-05-21T05:00:35.293Z,84.61
2019-05-21T05:03:02.417Z,85.25
2019-05-21T05:05:29.655Z,84.95
2019-05-21T05:07:56.753Z,85.12
2019-05-21T05:10:23.827Z,83.47
2019-05-21T05:12:50.901Z,83.29
2019-05-21T05:15:18.050Z,83.32
2019-05-21T05:17:45.089Z,82.76
2019-05-21T05:23:13.603Z,82.80
2019-05-21T05:25:40.685Z,82.79
2019-05-21T05:28:07.790Z,83.29
2019-05-21T05:30:34.884Z,83.38
2019-05-21T05:33:01.964Z,82.90
2019-05-21T05:35:29.017Z,82.69
2019-05-21T05:37:56.083Z,83.03
2019-05-21T05:40:23.352Z,82.84
2019-05-21T05:42:50.494Z,82.59
2019-05-21T05:45:17.675Z,82.47
2019-05-21T05:47:44.754Z,82.61
2019-05-21T05:52:51.168Z,82.90
2019-05-21T05:55:18.215Z,83.26
2019-05-21T05:57:45.365Z,83.58
2019-05-21T06:02:52.118Z,83.49
2019-05-21T06:05:19.323Z,83.31
2019-05-21T06:07:58.785Z,83.36
2019-05-21T06:10:25.214Z,83.75
2019-05-21T06:12:52.328Z,84.10
2019-05-21T06:15:19.435Z,84.26
2019-05-21T06:17:46.500Z,83.98
2019-05-21T06:20:34.892Z,84.20
2019-05-21T06:23:02.041Z,84.04
2019-05-21T06:25:29.167Z,83.69
2019-05-21T06:27:56.269Z,83.50
2019-05-21T06:30:23.349Z,83.63
2019-05-21T06:32:50.462Z,83.97
2019-05-21T06:35:17.575Z,84.62
2019-05-21T06:37:44.685Z,84.38
2019-05-21T06:40:50.700Z,84.14
2019-05-21T06:43:17.797Z,84.17
2019-05-21T06:45:44.934Z,84.00
2019-05-21T06:48:12.023Z,83.73
2019-05-21T06:50:39.169Z,83.68
2019-05-21T06:53:06.287Z,83.55
2019-05-21T06:55:33.434Z,83.98
2019-05-21T06:58:00.500Z,83.79
2019-05-21T07:00:27.730Z,83.15
2019-05-21T07:02:54.809Z,83.22
2019-05-21T07:05:21.929Z,82.69
2019-05-21T07:07:49.063Z,82.81
2019-05-21T07:10:16.203Z,82.27
2019-05-21T07:12:43.278Z,82.52
2019-05-21T07:18:11.282Z,82.14
2019-05-21T07:20:38.466Z,82.27
2019-05-21T07:23:05.720Z,82.53
2019-05-21T07:25:32.826Z,82.67
2019-05-21T07:27:59.892Z,82.82
2019-05-21T07:30:26.997Z,82.43
2019-05-21T07:32:54.141Z,82.02
2019-05-21T07:35:21.297Z,82.01
2019-05-21T07:37:48.382Z,82.01
2019-05-21T07:40:15.601Z,81.77
2019-05-21T07:42:42.688Z,81.76
2019-05-21T07:45:09.753Z,80.65
2019-05-21T07:47:36.909Z,80.69
2019-05-21T07:50:04.322Z,80.12
2019-05-21T07:52:31.403Z,80.40
2019-05-21T07:54:58.515Z,80.68
2019-05-21T07:57:25.663Z,80.15
2019-05-21T07:59:52.748Z,80.68
2019-05-21T08:02:19.813Z,80.68
2019-05-21T08:04:46.951Z,79.68
2019-05-21T08:07:14.256Z,79.88
2019-05-21T08:09:41.405Z,80.43
2019-05-21T08:12:27.806Z,80.76
2019-05-21T08:14:37.498Z,80.75
2019-05-21T08:17:04.671Z,80.75
2019-05-21T08:19:31.721Z,80.06
2019-05-21T08:21:58.841Z,80.73
2019-05-21T08:24:25.921Z,79.79
2019-05-21T08:27:05.693Z,80.22
2019-05-21T08:29:45.909Z,79.61
2019-05-21T08:32:13.030Z,79.61
2019-05-21T08:34:40.122Z,79.38
2019-05-21T08:37:07.218Z,78.96
2019-05-21T08:39:34.316Z,79.28
2019-05-21T08:42:01.412Z,79.21
2019-05-21T08:44:28.493Z,79.48
2019-05-21T08:49:44.645Z,79.75
2019-05-21T08:52:11.729Z,79.86
2019-05-21T08:54:58.373Z,79.49
2019-05-21T08:57:25.492Z,79.12
2019-05-21T08:59:52.565Z,79.21
2019-05-21T09:02:19.663Z,79.26
2019-05-21T09:04:47.017Z,78.49
2019-05-21T09:07:33.685Z,78.44
2019-05-21T09:10:00.789Z,78.44
2019-05-21T09:12:27.922Z,78.26
2019-05-21T09:14:55.019Z,78.26
2019-05-21T09:17:22.129Z,78.77
2019-05-21T09:19:49.203Z,76.22
2019-05-21T09:22:16.297Z,76.22
2019-05-21T09:24:43.375Z,77.56
2019-05-21T09:27:10.492Z,77.83
2019-05-21T09:29:37.575Z,75.39
2019-05-21T09:32:04.685Z,75.39
2019-05-21T09:34:47.488Z,74.82
2019-05-21T09:37:00.825Z,74.31
2019-05-21T09:39:27.905Z,74.46
2019-05-21T09:41:55.036Z,74.30
2019-05-21T09:44:22.119Z,74.52
2019-05-21T09:46:49.215Z,73.32
2019-05-21T09:49:16.282Z,74.04
2019-05-21T09:51:43.378Z,75.25
2019-05-21T09:54:10.490Z,74.36
2019-05-21T09:56:37.580Z,73.92
2019-05-21T09:59:17.207Z,74.14
2019-05-21T10:01:48.018Z,72.84
2019-05-21T10:04:15.544Z,74.10
2019-05-21T10:06:42.631Z,73.32
2019-05-21T10:09:15.243Z,74.27
2019-05-21T10:11:42.382Z,74.35
2019-05-21T10:14:09.539Z,73.34
2019-05-21T10:16:36.632Z,75.31
2019-05-21T10:19:03.910Z,74.67
2019-05-21T10:21:31.031Z,73.98
2019-05-21T10:23:58.117Z,75.25
2019-05-21T10:26:25.197Z,74.44
2019-05-21T10:28:52.279Z,73.79
2019-05-21T10:31:19.371Z,73.74
2019-05-21T10:33:46.479Z,72.57
2019-05-21T10:36:13.763Z,73.21
2019-05-21T10:38:40.922Z,72.68
2019-05-21T10:41:08.004Z,72.08
2019-05-21T10:43:35.097Z,73.59
2019-05-21T10:46:02.209Z,73.87
2019-05-21T10:48:29.352Z,72.88
2019-05-21T10:50:56.443Z,73.47
2019-05-21T10:53:23.481Z,72.26
2019-05-21T10:55:50.596Z,72.18
2019-05-21T10:58:17.734Z,73.67
2019-05-21T11:00:46.846Z,72.36
2019-05-21T11:03:39.441Z,72.00
2019-05-21T11:06:10.319Z,70.64
2019-05-21T11:08:35.529Z,71.39
2019-05-21T11:11:02.611Z,71.45
2019-05-21T11:13:29.711Z,71.38
2019-05-21T11:15:56.978Z,71.00
2019-05-21T11:18:24.035Z,70.52
2019-05-21T11:20:51.478Z,69.68
2019-05-21T11:23:30.385Z,71.78
2019-05-21T11:25:57.601Z,71.33
2019-05-21T11:28:24.719Z,72.56
2019-05-21T11:30:52.232Z,71.58
2019-05-21T11:33:19.405Z,71.79
2019-05-21T11:35:46.518Z,71.75
2019-05-21T11:38:13.585Z,71.87
2019-05-21T11:40:40.671Z,71.20
2019-05-21T11:43:07.832Z,72.63
2019-05-21T11:45:34.950Z,71.36
2019-05-21T11:48:02.034Z,71.14
2019-05-21T11:50:29.152Z,73.24
2019-05-21T11:52:56.220Z,72.70
2019-05-21T11:55:23.354Z,72.74
2019-05-21T11:57:50.418Z,72.81
2019-05-21T12:00:21.686Z,72.69
2019-05-21T12:02:48.505Z,73.35
2019-05-21T12:05:15.581Z,73.43
2019-05-21T12:07:42.692Z,71.54
2019-05-21T12:10:14.808Z,70.87
2019-05-21T12:12:41.954Z,70.86
2019-05-21T12:15:09.159Z,71.89
2019-05-21T12:17:36.271Z,71.11
2019-05-21T12:20:04.017Z,70.96
2019-05-21T12:22:31.082Z,71.05
2019-05-21T12:24:58.189Z,70.85
2019-05-21T12:27:25.251Z,69.81
2019-05-21T12:29:52.363Z,70.08
2019-05-21T12:32:21.215Z,71.05
2019-05-21T12:34:48.467Z,70.25
2019-05-21T12:37:15.622Z,70.43
2019-05-21T12:39:42.942Z,72.44
2019-05-21T12:42:10.013Z,71.28
2019-05-21T12:44:37.093Z,70.93
2019-05-21T12:47:04.161Z,72.19
2019-05-21T12:49:31.277Z,72.56
2019-05-21T12:51:58.357Z,73.29
2019-05-21T12:54:25.637Z,73.39
2019-05-21T12:56:52.707Z,73.08
2019-05-21T12:59:19.810Z,73.22
2019-05-21T13:01:46.930Z,74.21
2019-05-21T13:04:14.051Z,74.36
2019-05-21T13:06:41.178Z,74.38
2019-05-21T13:09:08.475Z,74.59
2019-05-21T13:11:35.636Z,74.29
2019-05-21T13:14:02.815Z,74.81
2019-05-21T13:16:29.948Z,75.41
2019-05-21T13:18:57.007Z,74.91
2019-05-21T13:21:24.120Z,75.09
2019-05-21T13:23:51.212Z,75.21
2019-05-21T13:26:18.356Z,75.21
2019-05-21T13:28:45.438Z,75.73
2019-05-21T13:31:12.516Z,75.75
2019-05-21T13:33:39.565Z,74.32
2019-05-21T13:36:06.922Z,74.32
2019-05-21T13:38:33.998Z,75.03
2019-05-21T13:41:01.210Z,73.34
2019-05-21T13:43:28.334Z,73.34
2019-05-21T13:45:55.414Z,73.57
2019-05-21T13:48:22.515Z,73.66
2019-05-21T13:50:49.648Z,72.67
2019-05-21T13:53:16.710Z,72.56
2019-05-21T13:55:44.050Z,72.90
2019-05-21T13:58:11.136Z,71.37
2019-05-21T14:00:44.531Z,72.58
2019-05-21T14:03:12.031Z,70.23
2019-05-21T14:05:39.146Z,70.64
2019-05-21T14:08:06.281Z,70.64
2019-05-21T14:10:33.487Z,70.33
2019-05-21T14:13:00.786Z,69.76
2019-05-21T14:15:27.874Z,69.76
2019-05-21T14:17:55.019Z,71.10
2019-05-21T14:20:22.109Z,70.74
2019-05-21T14:22:49.208Z,71.57
2019-05-21T14:25:17.490Z,71.29
2019-05-21T14:27:45.272Z,70.90
2019-05-21T14:30:16.486Z,70.54
2019-05-21T14:32:45.283Z,70.83
2019-05-21T14:35:14.086Z,70.60
2019-05-21T14:37:42.601Z,71.34
2019-05-21T14:40:32.423Z,70.69
2019-05-21T14:43:10.330Z,70.97
2019-05-21T14:45:37.453Z,71.36
2019-05-21T14:48:15.432Z,70.94
2019-05-21T14:53:27.257Z,71.29
2019-05-21T14:55:54.374Z,71.35
2019-05-21T14:58:43.534Z,71.61
2019-05-21T15:01:11.053Z,72.14
2019-05-21T15:03:38.137Z,71.57
2019-05-21T15:06:05.297Z,72.55
2019-05-21T15:08:32.447Z,72.40
2019-05-21T15:11:01.058Z,72.86
2019-05-21T15:13:28.439Z,73.36
2019-05-21T15:15:55.568Z,73.26
2019-05-21T15:18:22.688Z,73.26
2019-05-21T15:21:09.479Z,74.49
2019-05-21T15:23:36.542Z,74.28
2019-05-21T15:26:03.963Z,74.57
2019-05-21T15:28:43.265Z,75.02
2019-05-21T15:31:10.369Z,75.02
2019-05-21T15:33:37.475Z,76.45
2019-05-21T15:36:04.569Z,76.45
2019-05-21T15:38:48.761Z,75.48
2019-05-21T15:41:10.831Z,76.46
2019-05-21T15:43:32.070Z,76.46
2019-05-21T15:45:59.158Z,76.58
2019-05-21T15:48:27.139Z,76.55
2019-05-21T15:50:54.323Z,76.53
2019-05-21T15:53:33.513Z,76.90
2019-05-21T15:56:13.608Z,77.02
2019-05-21T15:58:40.729Z,77.02
2019-05-21T16:01:07.897Z,76.92
2019-05-21T16:03:35.009Z,77.07
2019-05-21T16:06:02.097Z,76.84
2019-05-21T16:08:29.340Z,77.06
2019-05-21T16:10:56.541Z,78.12
2019-05-21T16:13:23.726Z,78.12
2019-05-21T16:15:50.856Z,78.12
2019-05-21T16:18:20.055Z,77.74
2019-05-21T16:20:47.159Z,78.52
2019-05-21T16:23:14.303Z,78.34
2019-05-21T16:25:41.435Z,78.34
2019-05-21T16:28:08.553Z,78.95
2019-05-21T16:30:35.648Z,79.10
2019-05-21T16:33:02.800Z,79.10
2019-05-21T16:35:30.211Z,80.02
2019-05-21T16:37:57.327Z,80.40
2019-05-21T16:40:24.523Z,80.40
2019-05-21T16:42:51.617Z,79.72
2019-05-21T16:45:20.526Z,80.26
2019-05-21T16:47:47.679Z,80.41
2019-05-21T16:50:36.284Z,81.12
2019-05-21T16:53:03.505Z,81.12
2019-05-21T16:55:31.568Z,80.95
2019-05-21T16:58:01.375Z,80.43
2019-05-21T17:00:28.896Z,81.05
2019-05-21T17:02:56.033Z,80.99
2019-05-21T17:05:35.561Z,80.53
2019-05-21T17:08:03.228Z,80.79
2019-05-21T17:10:30.301Z,80.79
2019-05-21T17:13:28.042Z,80.79
2019-05-21T17:15:57.134Z,80.99
2019-05-21T17:18:24.283Z,81.51
2019-05-21T17:20:51.432Z,81.63
2019-05-21T17:23:18.653Z,81.72
2019-05-21T17:26:05.260Z,81.76
2019-05-21T17:28:32.495Z,81.60
2019-05-21T17:30:59.594Z,81.60
2019-05-21T17:33:26.697Z,81.72
2019-05-21T17:35:53.779Z,81.33
2019-05-21T17:38:24.015Z,81.82
2019-05-21T17:40:49.910Z,81.24
2019-05-21T17:43:17.123Z,81.44
2019-05-21T17:45:44.213Z,81.25
2019-05-21T17:48:11.327Z,80.92
2019-05-21T17:50:38.421Z,80.97
2019-05-21T17:53:05.546Z,81.40
2019-05-21T17:55:32.664Z,81.85
2019-05-21T17:57:59.755Z,81.84
2019-05-21T18:00:49.266Z,82.32
2019-05-21T18:03:17.222Z,82.42
2019-05-21T18:05:44.654Z,82.24
2019-05-21T18:08:12.260Z,82.84
2019-05-21T18:10:39.704Z,82.70
2019-05-21T18:13:07.207Z,82.73
2019-05-21T18:15:34.543Z,82.82
2019-05-21T18:18:02.034Z,82.70
2019-05-21T18:20:29.442Z,83.23
2019-05-21T18:22:56.521Z,83.10
2019-05-21T18:25:23.655Z,83.05
2019-05-21T18:27:50.830Z,83.00
2019-05-21T18:30:18.856Z,83.20
2019-05-21T18:32:46.835Z,83.05
2019-05-21T18:35:14.068Z,83.15
2019-05-21T18:37:41.374Z,83.09
2019-05-21T18:40:14.346Z,83.17
2019-05-21T18:42:41.430Z,83.54
2019-05-21T18:45:09.357Z,83.47
2019-05-21T18:47:36.468Z,83.62
2019-05-21T18:50:04.068Z,83.92
2019-05-21T18:52:31.269Z,83.90
2019-05-21T18:54:58.434Z,84.01
2019-05-21T18:57:25.508Z,84.09
2019-05-21T18:59:52.618Z,84.01
2019-05-21T19:02:19.858Z,84.44
2019-05-21T19:04:46.986Z,84.66
2019-05-21T19:07:14.097Z,84.81
2019-05-21T19:09:41.225Z,84.66
2019-05-21T19:12:08.325Z,84.67
2019-05-21T19:14:35.498Z,84.58
2019-05-21T19:17:02.651Z,84.36
2019-05-21T19:19:29.719Z,84.51
2019-05-21T19:21:56.824Z,84.57
2019-05-21T19:24:23.920Z,84.59
2019-05-21T19:26:51.018Z,84.51
2019-05-21T19:29:18.121Z,84.71
2019-05-21T19:31:45.237Z,84.79
2019-05-21T19:34:12.310Z,84.87
2019-05-21T19:36:39.396Z,84.86
2019-05-21T19:39:06.611Z,84.97
2019-05-21T19:41:33.710Z,84.61
2019-05-21T19:44:00.782Z,84.81
2019-05-21T19:46:27.895Z,85.03
2019-05-21T19:48:55.009Z,85.02
2019-05-21T19:51:22.133Z,85.21
2019-05-21T19:53:49.228Z,85.19
2019-05-21T19:56:16.332Z,85.25
2019-05-21T19:58:43.650Z,85.30
2019-05-21T20:01:11.244Z,85.18
2019-05-21T20:03:38.344Z,85.14
2019-05-21T20:06:06.083Z,85.05
2019-05-21T20:08:33.179Z,85.05
2019-05-21T20:11:00.268Z,85.07
2019-05-21T20:13:32.590Z,85.32
2019-05-21T20:15:58.348Z,85.50
2019-05-21T20:18:25.669Z,85.39
2019-05-21T20:20:52.728Z,85.46
2019-05-21T20:23:20.591Z,85.39
2019-05-21T20:25:56.443Z,85.45
2019-05-21T20:28:18.183Z,85.42
2019-05-21T20:30:45.794Z,85.48
2019-05-21T20:33:13.896Z,85.44
2019-05-21T20:35:41.151Z,85.64
2019-05-21T20:38:09.759Z,85.56
2019-05-21T20:40:37.210Z,85.47
2019-05-21T20:43:04.865Z,85.49
2019-05-21T20:45:34.533Z,85.61
2019-05-21T20:48:02.831Z,85.48
2019-05-21T20:50:29.915Z,85.56
2019-05-21T20:52:57.095Z,85.72
2019-05-21T20:55:24.512Z,85.74
2019-05-21T20:57:52.416Z,85.70
2019-05-21T21:00:23.168Z,85.68
2019-05-21T21:02:51.719Z,85.54
2019-05-21T21:05:19.023Z,85.55
2019-05-21T21:07:46.309Z,85.65
2019-05-21T21:10:15.526Z,85.62
2019-05-21T21:12:42.941Z,85.62
2019-05-21T21:15:10.849Z,85.58
2019-05-21T21:17:37.972Z,85.54
2019-05-21T21:20:05.157Z,85.51
2019-05-21T21:22:32.273Z,85.38
2019-05-21T21:24:59.390Z,85.37
2019-05-21T21:27:26.648Z,85.31
2019-05-21T21:29:53.753Z,85.28
2019-05-21T21:32:20.861Z,85.33
2019-05-21T21:34:48.025Z,85.34
2019-05-21T21:37:15.266Z,85.36
2019-05-21T21:39:43.022Z,85.42
2019-05-21T21:42:10.481Z,85.26
2019-05-21T21:44:38.299Z,85.20
2019-05-21T21:47:05.435Z,85.27
2019-05-21T21:49:34.734Z,85.39
2019-05-21T21:52:01.795Z,85.31
2019-05-21T21:54:29.594Z,85.38
2019-05-21T21:56:56.652Z,85.39
2019-05-21T21:59:23.725Z,85.25
2019-05-21T22:01:53.572Z,85.40
2019-05-21T22:04:22.574Z,85.42
2019-05-21T22:06:50.532Z,85.47
2019-05-21T22:09:43.581Z,85.42
2019-05-21T22:12:14.197Z,85.31
2019-05-21T22:14:50.508Z,85.38
2019-05-21T22:17:14.793Z,85.40
2019-05-21T22:19:42.161Z,85.47
2019-05-21T22:22:10.143Z,85.62
2019-05-21T22:24:37.231Z,85.68
2019-05-21T22:27:04.493Z,85.87
2019-05-21T22:29:32.048Z,85.91
2019-05-21T22:31:59.114Z,85.84
2019-05-21T22:34:26.220Z,86.02
2019-05-21T22:36:53.268Z,86.13
2019-05-21T22:39:23.544Z,85.98
2019-05-21T22:41:50.745Z,85.96
2019-05-21T22:44:17.834Z,85.90
2019-05-21T22:46:45.424Z,85.98
2019-05-21T22:49:12.493Z,85.96
2019-05-21T22:51:39.570Z,86.06
2019-05-21T22:54:06.619Z,85.99
2019-05-21T22:56:33.687Z,86.02
2019-05-21T22:59:00.959Z,86.13
2019-05-21T23:01:29.989Z,86.19
2019-05-21T23:03:57.029Z,86.25
2019-05-21T23:06:24.128Z,86.19
2019-05-21T23:08:51.225Z,86.27
2019-05-21T23:11:18.413Z,86.29
2019-05-21T23:13:45.503Z,86.39
2019-05-21T23:16:12.801Z,86.31
2019-05-21T23:18:39.907Z,86.28
2019-05-21T23:21:08.217Z,86.43
2019-05-21T23:23:37.017Z,86.48
2019-05-21T23:26:05.083Z,86.42
2019-05-21T23:28:32.541Z,86.30
2019-05-21T23:31:01.323Z,86.33
2019-05-21T23:33:30.041Z,86.38
2019-05-21T23:35:57.845Z,86.42
2019-05-21T23:38:25.263Z,86.33
2019-05-21T23:40:52.737Z,86.38
2019-05-21T23:43:19.855Z,86.46
2019-05-21T23:45:46.914Z,86.46
2019-05-21T23:48:15.386Z,86.38
2019-05-21T23:50:42.459Z,86.27
2019-05-21T23:53:09.555Z,86.37
2019-05-21T23:55:37.437Z,86.32
2019-05-21T23:58:04.935Z,86.29
